Current Weather

John F Kennedy Intl

New York, New York (KJFK)

Report from: Friday, April 19, 2024 4:51 AM EDT
Current time: Friday, April 19, 2024 5:59 AM EDT

Nearby weather – Weather history – Daily summaries
Weather forecast

Temperature7.2°C (45.0°F)
Wind chill5.1°C (41.2°F)
Dew point4.4°C (39.9°F)
Winds 6 kts (3.1 m/s, 6.9 mph) North (350°)
Visibility10 mi. (16.1 km)
Clouds Scattered clouds 3,600 ft. (1,097 m)
Ceiling: Broken clouds 9,000 ft. (2,743 m)
Overcast 25,000 ft. (7,620 m)
Altimeter30.16 in.Hg (1021 mB)
Relative humidity82 %
Density altitude-1,089 ft. (-332 m)
Sea-level pressure102.1 kPa (1021 mB, 30.16 in.Hg)
Remarks Automated weather observing station with precipitation discriminator
Pressure falling, then rising
Flight conditions Visual Meteorological Conditions
Raw dataKJFK 190851Z 35006KT 10SM SCT036 BKN090 OVC250 07/04 A3016 RMK AO2 SLP213 T00720044 55002
An error has occurred. This application may no longer respond until reloaded. Reload 🗙